메인 페이지
METAR-TAF:

METAR-TAF

공항 :

카이로 국제공항

카이로, 이집트

위도: 30-08N, 경도: 031-24E, 고도: 64m

현재 날씨관측

예보는 38분 전, 15:30시(UTC)에 발표되었습니다.
6kt
온도 19°C
습도 43%
기압 1020 hPa
시정 10km 이상
1500m 미만 상공 구름 및 적란운 없음

METAR: HECA 181530Z 19006KT CAVOK 19/06 Q1020 NOSIG

시각: 18:08 (16:08 UTC)

예보

예보는 4 시간 8분 전, 12:00시(UTC)에 발표되었습니다.
예보 대상 시간: 18일 12시부터 19일 18시까지 (UTC)
남서9kt
시정 10km 이상
고도 2500ft 상공 구름 조금
전환 중
19일 12시부터 19일 14시까지 (UTC)
서남서17kt, 순간 최대 풍속 29kt
확률 40%
19일 12시부터 19일 18시까지 (UTC)
시정: 4000m
모래

TAF: HECA 181200Z 1812/1918 22009KT 9999 FEW025 BECMG 1912/1914 24017G29KT PROB40 1912/1918 4000 SA

4,000개 이상의 공항 관측 자료 및 예보 (METAR 및 TAF 보고).

지도상에서 검색 가능한 기상관측소가 노란 점과 빨간 점으로 표시되어 있습니다.

기상관측소 명을 보려면 표시 위로 마우스를 이동하세요.

날씨 관측과 예보를 보려면 클릭하세요.

지도 변경 : 확대하려면 엑스 표시가 있는 녹색 버튼, 축소하려면 빼기 표시가 있는 녹색 버튼, 다음 페이지의 지도를 보려면 녹색 화살표를 클릭하세요.


METAR-TAF: